Sauk Centre, MN

11:21 PM CST on December 14, 2019 (GMT -0600)
Sauk Centre

Weather History for KD39 - October, 2019

Change the Weather History Date:

Sunday, October 6, 2019

  Actual Average (KGHW) Record (KGHW)
Temperature  
Mean Temperature 50 °F -  
Max Temperature 59 °F 62 °F 87 °F (1961)
Min Temperature 42 °F 37 °F 24 °F (2001)
Degree Days  
Heating Degree Days 14    
Moisture  
Dew Point 41 °F    
Average Humidity 69    
Maximum Humidity 88    
Minimum Humidity 47    
Precipitation  
Precipitation 0.00 in - - ()
Sea Level Pressure  
Sea Level Pressure 29.92 in    
Wind  
Wind Speed 12 mph ()    
Max Wind Speed 25 mph    
Max Gust Speed 37 mph    
Visibility 10.0 miles    
Events Rain    
Averages and records for this station are not official NWS values.
T = Trace of Precipitation, MM = Missing Value Source: Averaged Metar Reports

Daily Weather History Graph

Daily Weather History Graph

Search for Another Location

Airport or City:

Astronomy

Oct. 06, 2019 Rise Set
Actual Time 7:24 AM CDT 6:50 PM CDT
Civil Twilight 6:54 AM CDT 7:20 PM CDT
Nautical Twilight 6:20 AM CDT 7:54 PM CDT
Astronomical Twilight 5:45 AM CDT 8:29 PM CDT
Moon 3:53 PM CDT (10/6) No Moon Set
Length of Visible Light 12h 25m
Length of Day
11h 26m
First Quarter, 60% of the Moon is Illuminated
Oct 6
First Quarter
Oct 13
Full
Oct 21
Last Quarter
Oct 27
New
Nov 4
First Quarter

Hourly Weather History & Observations

Time (CDT) Temp. Windchill Dew Point Humidity Pressure Visibility Wind Dir Wind Speed Gust Speed Precip Events Conditions
12:00 AM 46.8 °F - 43.3 °F 88% 29.79 in 10.0 mi WSW 9.2 mph 16.1 mph N/A   Clear
12:16 AM 47.1 °F - 43.2 °F 86% 29.79 in 10.0 mi WSW 9.2 mph - N/A   Clear
12:35 AM 46.8 °F - 43.0 °F 87% 29.79 in 10.0 mi WSW 11.5 mph - N/A   Clear
12:55 AM 46.9 °F - 42.8 °F 86% 29.80 in 10.0 mi WSW 9.2 mph - N/A   Clear
12:56 AM 46.9 °F - 42.8 °F 86% 29.80 in 10.0 mi SW 9.2 mph - N/A   Clear
1:15 AM 46.4 °F 41.1 °F 42.8 °F 87% 29.80 in 10.0 mi SW 11.5 mph - N/A   Mostly Cloudy
1:38 AM 45.9 °F 41.2 °F 42.1 °F 87% 29.80 in 10.0 mi WSW 9.2 mph - N/A   Scattered Clouds
1:55 AM 47.3 °F - 41.4 °F 80% 29.81 in 10.0 mi WSW 11.5 mph 19.6 mph N/A   Clear
2:15 AM 46.8 °F - 41.2 °F 81% 29.81 in 10.0 mi WSW 10.4 mph 17.3 mph N/A   Clear
2:16 AM 46.6 °F - 41.2 °F 81% 29.81 in 10.0 mi WSW 10.4 mph 17.3 mph N/A   Clear
2:35 AM 46.2 °F 40.8 °F 40.6 °F 81% 29.81 in 10.0 mi WSW 11.5 mph 17.3 mph N/A   Clear
2:36 AM 46.2 °F 40.5 °F 40.6 °F 81% 29.81 in 10.0 mi WSW 12.7 mph 17.3 mph N/A   Clear
2:58 AM 46.0 °F 40.6 °F 40.5 °F 81% 29.81 in 10.0 mi WSW 11.5 mph - N/A   Clear
3:16 AM 46.0 °F 40.2 °F 40.1 °F 80% 29.82 in 10.0 mi WSW 12.7 mph - N/A   Clear
3:36 AM 45.9 °F 40.4 °F 40.1 °F 80% 29.82 in 10.0 mi WSW 11.5 mph - N/A   Clear
3:55 AM 45.5 °F 39.9 °F 40.1 °F 81% 29.82 in 10.0 mi WSW 11.5 mph 16.1 mph N/A   Clear
3:56 AM 45.5 °F 39.9 °F 40.1 °F 81% 29.82 in 10.0 mi WSW 11.5 mph 16.1 mph N/A   Clear
4:15 AM 45.5 °F 39.9 °F 39.9 °F 81% 29.83 in 10.0 mi WSW 11.5 mph 17.3 mph N/A   Clear
4:38 AM 45.1 °F 40.8 °F 39.7 °F 81% 29.84 in 10.0 mi SW 8.1 mph - N/A   Clear
4:56 AM 44.4 °F 39.0 °F 39.7 °F 84% 29.85 in 10.0 mi SW 10.4 mph 16.1 mph N/A   Clear
5:15 AM 43.7 °F 38.1 °F 39.7 °F 86% 29.85 in 10.0 mi SW 10.4 mph - N/A   Clear
5:16 AM 43.7 °F 38.1 °F 39.7 °F 86% 29.85 in 10.0 mi SW 10.4 mph - N/A   Clear
5:35 AM 43.9 °F 38.8 °F 39.6 °F 85% 29.86 in 10.0 mi WSW 9.2 mph - N/A   Clear
5:36 AM 43.9 °F 38.8 °F 39.6 °F 85% 29.86 in 10.0 mi WSW 9.2 mph - N/A   Clear
5:59 AM 44.1 °F 39.0 °F 39.2 °F 83% 29.86 in 10.0 mi WSW 9.2 mph 16.1 mph N/A   Clear
6:16 AM 44.1 °F 38.6 °F 38.8 °F 82% 29.86 in 10.0 mi WSW 10.4 mph 18.4 mph N/A   Clear
6:36 AM 44.1 °F 38.6 °F 38.8 °F 82% 29.87 in 10.0 mi WSW 10.4 mph - N/A   Clear
6:55 AM 44.1 °F 39.0 °F 38.5 °F 81% 29.87 in 10.0 mi WSW 9.2 mph - N/A   Clear
6:56 AM 44.1 °F 39.0 °F 38.5 °F 81% 29.87 in 10.0 mi WSW 9.2 mph - N/A   Clear
7:15 AM 42.8 °F 38.0 °F 38.3 °F 84% 29.88 in 10.0 mi WSW 8.1 mph - N/A   Clear
7:19 AM 42.8 °F 38.0 °F 38.3 °F 84% 29.88 in 10.0 mi SW 8.1 mph - N/A   Clear
7:37 AM 42.3 °F 36.3 °F 38.3 °F 86% 29.87 in 10.0 mi SW 10.4 mph - N/A   Clear
7:56 AM 43.0 °F 37.2 °F 38.3 °F 84% 29.89 in 10.0 mi WSW 10.4 mph 16.1 mph N/A   Scattered Clouds
8:15 AM 43.7 °F 38.1 °F 38.5 °F 82% 29.89 in 10.0 mi SW 10.4 mph - N/A   Scattered Clouds
8:16 AM 43.7 °F 38.1 °F 38.5 °F 82% 29.89 in 10.0 mi WSW 10.4 mph - N/A   Scattered Clouds
8:35 AM 45.3 °F 39.3 °F 38.8 °F 78% 29.89 in 10.0 mi WSW 12.7 mph 18.4 mph N/A   Clear
8:36 AM 45.5 °F 39.6 °F 38.7 °F 77% 29.89 in 10.0 mi WSW 12.7 mph 18.4 mph N/A   Clear
8:58 AM 46.6 °F - 39.2 °F 75% 29.90 in 10.0 mi WSW 15.0 mph 19.6 mph N/A   Clear
9:16 AM 47.3 °F - 39.6 °F 74% 29.91 in 10.0 mi WSW 15.0 mph 19.6 mph N/A   Clear
9:35 AM 48.4 °F - 39.7 °F 72% 29.91 in 10.0 mi WSW 16.1 mph 27.6 mph N/A   Clear
9:55 AM 49.5 °F - 40.1 °F 70% 29.91 in 10.0 mi WSW 16.1 mph 26.5 mph N/A   Clear
9:56 AM 49.5 °F - 40.1 °F 70% 29.91 in 10.0 mi WSW 15.0 mph 26.5 mph N/A   Clear
10:15 AM 50.7 °F - 40.5 °F 68% 29.91 in 10.0 mi WSW 18.4 mph 25.3 mph N/A   Clear
10:37 AM 51.8 °F - 41.0 °F 67% 29.92 in 10.0 mi West 20.7 mph 25.3 mph N/A   Mostly Cloudy
10:56 AM 51.1 °F - 40.6 °F 67% 29.93 in 10.0 mi West 15.0 mph 24.2 mph N/A   Overcast
11:15 AM 52.7 °F - 40.6 °F 64% 29.93 in 10.0 mi West 20.7 mph 31.1 mph N/A   Scattered Clouds
11:16 AM 52.7 °F - 40.8 °F 64% 29.93 in 10.0 mi West 20.7 mph 31.1 mph N/A   Scattered Clouds
11:35 AM 54.3 °F - 41.9 °F 63% 29.94 in 10.0 mi West 19.6 mph 28.8 mph N/A   Clear
11:36 AM 54.3 °F - 42.1 °F 63% 29.94 in 10.0 mi West 19.6 mph 28.8 mph N/A   Clear
11:58 AM 55.0 °F - 42.1 °F 62% 29.94 in 10.0 mi West 20.7 mph 28.8 mph N/A   Mostly Cloudy
12:16 PM 55.6 °F - 42.1 °F 60% 29.94 in 10.0 mi West 17.3 mph 33.4 mph N/A   Mostly Cloudy
12:35 PM 56.7 °F - 41.7 °F 57% 29.94 in 10.0 mi West 20.7 mph 33.4 mph N/A   Overcast
12:36 PM 56.7 °F - 41.7 °F 57% 29.94 in 10.0 mi West 21.9 mph 33.4 mph N/A   Overcast
12:55 PM 57.4 °F - 41.9 °F 56% 29.94 in 10.0 mi West 18.4 mph 33.4 mph N/A   Overcast
12:56 PM 57.4 °F - 42.1 °F 57% 29.94 in 10.0 mi West 20.7 mph 33.4 mph N/A   Overcast
1:15 PM 57.4 °F - 41.4 °F 55% 29.94 in 10.0 mi West 20.7 mph 33.4 mph N/A   Overcast
1:20 PM 56.8 °F - 41.4 °F 56% 29.94 in 10.0 mi West 20.7 mph 29.9 mph N/A   Overcast
1:37 PM 56.3 °F - 40.5 °F 55% 29.95 in 10.0 mi West 20.7 mph 32.2 mph N/A   Overcast
1:55 PM 56.3 °F - 41.0 °F 57% 29.95 in 10.0 mi West 23.0 mph 28.8 mph N/A   Overcast
2:15 PM 54.9 °F - 41.4 °F 60% 29.95 in 10.0 mi West 19.6 mph 25.3 mph N/A   Overcast
2:16 PM 54.9 °F - 41.2 °F 60% 29.95 in 10.0 mi WSW 16.1 mph 24.2 mph N/A   Overcast
2:35 PM 56.8 °F - 42.3 °F 58% 29.94 in 10.0 mi West 15.0 mph 24.2 mph N/A   Overcast
2:36 PM 57.0 °F - 42.4 °F 58% 29.94 in 10.0 mi West 17.3 mph 24.2 mph N/A   Overcast
2:58 PM 57.2 °F - 41.5 °F 56% 29.94 in 10.0 mi West 19.6 mph 26.5 mph N/A   Mostly Cloudy
3:16 PM 58.8 °F - 41.7 °F 53% 29.94 in 10.0 mi West 20.7 mph 28.8 mph N/A   Mostly Cloudy
3:35 PM 57.7 °F - 40.8 °F 53% 29.94 in 10.0 mi West 19.6 mph 26.5 mph N/A   Mostly Cloudy
3:55 PM 58.3 °F - 40.5 °F 52% 29.94 in 10.0 mi West 19.6 mph 32.2 mph N/A   Mostly Cloudy
3:56 PM 58.3 °F - 40.6 °F 52% 29.94 in 10.0 mi West 21.9 mph 27.6 mph N/A   Mostly Cloudy
4:15 PM 58.1 °F - 39.7 °F 50% 29.94 in 10.0 mi West 25.3 mph 36.8 mph N/A   Overcast
4:20 PM 58.1 °F - 39.4 °F 50% 29.94 in 10.0 mi West 21.9 mph 36.8 mph N/A   Overcast
4:37 PM 59.2 °F - 40.1 °F 49% 29.94 in 10.0 mi West 18.4 mph 26.5 mph N/A   Scattered Clouds
4:55 PM 59.5 °F - 39.0 °F 47% 29.93 in 10.0 mi West 16.1 mph 33.4 mph N/A   Scattered Clouds
4:56 PM 59.4 °F - 38.8 °F 47% 29.94 in 10.0 mi West 17.3 mph 33.4 mph N/A   Scattered Clouds
5:15 PM 56.3 °F - 40.8 °F 56% 29.94 in 10.0 mi West 21.9 mph 33.4 mph N/A Rain Light Rain
5:16 PM 56.3 °F - 40.6 °F 56% 29.94 in 10.0 mi West 21.9 mph 33.4 mph N/A Rain Light Rain
5:35 PM 57.2 °F - 39.4 °F 51% 29.95 in 10.0 mi West 11.5 mph 20.7 mph N/A   Mostly Cloudy
5:40 PM 56.3 °F - 40.1 °F 55% 29.95 in 10.0 mi West 10.4 mph 20.7 mph N/A   Scattered Clouds
5:57 PM 56.3 °F - 40.5 °F 55% 29.96 in 10.0 mi West 10.4 mph 17.3 mph N/A   Clear
6:15 PM 56.3 °F - 39.0 °F 52% 29.96 in 10.0 mi West 13.8 mph 19.6 mph N/A   Mostly Cloudy
6:35 PM 56.8 °F - 38.3 °F 50% 29.97 in 10.0 mi West 13.8 mph 23.0 mph N/A   Overcast
6:36 PM 56.7 °F - 38.3 °F 50% 29.97 in 10.0 mi West 13.8 mph 23.0 mph N/A   Overcast
6:55 PM 56.3 °F - 38.5 °F 51% 29.97 in 10.0 mi West 10.4 mph - N/A   Overcast
6:56 PM 56.3 °F - 38.5 °F 51% 29.97 in 10.0 mi West 9.2 mph - N/A   Overcast
7:19 PM 55.8 °F - 38.8 °F 53% 29.98 in 10.0 mi West 11.5 mph 17.3 mph N/A   Overcast
7:36 PM 55.0 °F - 39.4 °F 56% 29.99 in 10.0 mi West 8.1 mph - N/A   Overcast
7:55 PM 54.0 °F - 39.9 °F 59% 29.99 in 10.0 mi West 6.9 mph - N/A   Overcast
7:56 PM 53.8 °F - 39.9 °F 59% 29.99 in 10.0 mi West 6.9 mph - N/A   Overcast
8:15 PM 52.3 °F - 41.5 °F 67% 29.99 in 10.0 mi WSW 6.9 mph - N/A Rain Light Rain
8:16 PM 52.2 °F - 41.4 °F 67% 29.99 in 10.0 mi WSW 6.9 mph - N/A Rain Light Rain
8:35 PM 51.3 °F - 42.1 °F 71% 29.99 in 10.0 mi Calm Calm - N/A   Overcast
8:39 PM 51.6 °F - 42.1 °F 70% 29.99 in 10.0 mi West 4.6 mph - N/A   Overcast
8:57 PM 51.3 °F - 42.1 °F 71% 30.00 in 10.0 mi WSW 4.6 mph - N/A   Overcast
9:16 PM 51.1 °F - 41.7 °F 70% 30.00 in 10.0 mi WSW 4.6 mph - N/A   Overcast
9:35 PM 51.1 °F - 41.9 °F 71% 30.00 in 10.0 mi WSW 4.6 mph - N/A   Overcast
9:36 PM 51.1 °F - 41.9 °F 71% 30.00 in 10.0 mi SW 5.8 mph - N/A   Overcast
9:55 PM 50.9 °F - 41.9 °F 71% 30.00 in 10.0 mi SW 6.9 mph - N/A   Overcast
9:56 PM 50.9 °F - 41.9 °F 71% 30.00 in 10.0 mi SW 6.9 mph - N/A   Overcast
10:18 PM 52.0 °F - 41.5 °F 68% 30.01 in 10.0 mi West 9.2 mph - N/A   Overcast
10:36 PM 52.0 °F - 41.9 °F 69% 30.02 in 10.0 mi West 8.1 mph - N/A   Overcast
10:55 PM 49.3 °F - 41.9 °F 76% 30.03 in 10.0 mi West 5.8 mph - N/A   Scattered Clouds
11:15 PM 47.8 °F - 41.5 °F 79% 30.03 in 10.0 mi WSW 5.8 mph - N/A   Scattered Clouds
11:16 PM 47.7 °F - 41.5 °F 79% 30.03 in 10.0 mi WSW 5.8 mph - N/A   Scattered Clouds
11:57 PM 47.7 °F - 41.0 °F 78% 30.04 in 10.0 mi West 8.1 mph - N/A   Clear